createdAt,value
2018-02-17T00:00:53.430Z,50.45
2018-02-17T00:03:21.818Z,33.95
2018-02-17T00:05:51.024Z,39.58
2018-02-17T00:08:18.609Z,41.70
2018-02-17T00:10:46.196Z,33.70
2018-02-17T00:13:13.754Z,32.53
2018-02-17T00:15:41.311Z,34.95
2018-02-17T00:18:08.907Z,51.58
2018-02-17T00:20:36.448Z,47.22
2018-02-17T00:23:04.847Z,48.30
2018-02-17T00:25:32.466Z,37.00
2018-02-17T00:28:00.048Z,31.67
2018-02-17T00:30:27.612Z,40.42
2018-02-17T00:32:55.166Z,43.87
2018-02-17T00:35:22.743Z,37.75
2018-02-17T00:37:50.331Z,38.38
2018-02-17T00:40:19.453Z,37.80
2018-02-17T00:42:46.996Z,36.85
2018-02-17T00:45:14.598Z,42.40
2018-02-17T00:47:42.153Z,51.05
2018-02-17T00:50:09.726Z,53.45
2018-02-17T00:52:37.328Z,39.00
2018-02-17T00:55:04.916Z,42.50
2018-02-17T00:57:32.482Z,49.45
2018-02-17T01:00:00.321Z,39.78
2018-02-17T01:02:27.888Z,39.53
2018-02-17T01:04:56.313Z,36.40
2018-02-17T01:07:23.878Z,45.97
2018-02-17T01:09:51.476Z,41.47
2018-02-17T01:12:19.015Z,36.55
2018-02-17T01:14:46.602Z,50.60
2018-02-17T01:17:14.947Z,27.67
2018-02-17T01:19:42.595Z,32.25
2018-02-17T01:22:10.150Z,34.88
2018-02-17T01:24:37.777Z,32.80
2018-02-17T01:27:06.219Z,31.15
2018-02-17T01:29:33.807Z,33.65
2018-02-17T01:32:01.418Z,35.75
2018-02-17T01:34:29.017Z,34.40
2018-02-17T01:36:56.668Z,37.65
2018-02-17T01:39:24.251Z,27.85
2018-02-17T01:41:52.629Z,36.08
2018-02-17T01:44:21.634Z,33.92
2018-02-17T01:46:49.210Z,32.78
2018-02-17T01:49:17.544Z,27.80
2018-02-17T01:51:46.002Z,26.05
2018-02-17T01:54:13.687Z,33.90
2018-02-17T01:56:41.421Z,36.50
2018-02-17T01:59:08.986Z,30.25
2018-02-17T02:01:36.521Z,21.75
2018-02-17T02:04:04.135Z,27.67
2018-02-17T02:06:31.661Z,29.30
2018-02-17T02:08:59.251Z,25.60
2018-02-17T02:11:26.852Z,24.90
2018-02-17T02:13:55.171Z,32.58
2018-02-17T02:16:22.689Z,27.85
2018-02-17T02:18:51.032Z,25.20
2018-02-17T02:21:19.361Z,29.48
2018-02-17T02:23:46.897Z,24.73
2018-02-17T02:26:14.420Z,35.28
2018-02-17T02:28:42.037Z,25.00
2018-02-17T02:31:09.571Z,25.67
2018-02-17T02:33:37.168Z,35.70
2018-02-17T02:36:04.740Z,31.08
2018-02-17T02:38:32.300Z,26.95
2018-02-17T02:40:59.864Z,22.87
2018-02-17T02:43:27.430Z,31.20
2018-02-17T02:45:54.967Z,25.50
2018-02-17T02:48:22.525Z,24.27
2018-02-17T02:50:50.107Z,28.85
2018-02-17T02:53:17.668Z,24.70
2018-02-17T02:55:45.239Z,27.27
2018-02-17T02:58:12.868Z,33.30
2018-02-17T03:00:40.384Z,30.55
2018-02-17T03:03:07.964Z,28.42
2018-02-17T03:05:35.561Z,27.02
2018-02-17T03:08:03.129Z,24.37
2018-02-17T03:10:30.669Z,29.17
2018-02-17T03:12:59.047Z,30.58
2018-02-17T03:15:26.602Z,25.48
2018-02-17T03:17:54.136Z,26.58
2018-02-17T03:20:21.697Z,26.02
2018-02-17T03:22:49.255Z,30.85
2018-02-17T03:25:16.818Z,32.30
2018-02-17T03:27:45.909Z,22.40
2018-02-17T03:30:13.494Z,24.10
2018-02-17T03:32:41.060Z,22.65
2018-02-17T03:35:09.524Z,19.33
2018-02-17T03:37:37.090Z,27.73
2018-02-17T03:40:04.591Z,21.33
2018-02-17T03:42:32.154Z,29.10
2018-02-17T03:44:59.752Z,26.52
2018-02-17T03:47:27.372Z,25.12
2018-02-17T03:49:54.934Z,24.40
2018-02-17T03:52:22.489Z,20.95
2018-02-17T03:54:50.302Z,26.90
2018-02-17T03:57:17.860Z,23.35
2018-02-17T03:59:45.443Z,25.25
2018-02-17T04:02:13.024Z,22.42
2018-02-17T04:04:40.614Z,17.77
2018-02-17T04:07:08.161Z,33.38
2018-02-17T04:09:35.715Z,23.98
2018-02-17T04:12:03.266Z,26.52
2018-02-17T04:14:30.840Z,32.67
2018-02-17T04:16:58.382Z,25.80
2018-02-17T04:19:25.944Z,31.45
2018-02-17T04:21:53.538Z,27.25
2018-02-17T04:24:21.936Z,25.17
2018-02-17T04:26:49.703Z,22.37
2018-02-17T04:29:17.260Z,27.95
2018-02-17T04:31:44.850Z,25.85
2018-02-17T04:34:12.440Z,21.95
2018-02-17T04:36:40.036Z,23.95
2018-02-17T04:39:08.362Z,21.05
2018-02-17T04:41:37.884Z,29.23
2018-02-17T04:44:07.327Z,28.23
2018-02-17T04:49:42.275Z,24.90
2018-02-17T04:52:12.933Z,21.30
2018-02-17T04:54:46.193Z,21.60
2018-02-17T04:57:33.346Z,28.58
2018-02-17T05:00:04.455Z,25.10
2018-02-17T05:02:32.843Z,24.42
2018-02-17T05:05:11.249Z,32.75
2018-02-17T05:07:44.456Z,22.52
2018-02-17T05:10:12.101Z,21.00
2018-02-17T05:12:39.696Z,25.05
2018-02-17T05:15:12.485Z,19.35
2018-02-17T05:17:47.482Z,21.92
2018-02-17T05:20:20.749Z,20.10
2018-02-17T05:22:50.803Z,24.75
2018-02-17T05:25:20.326Z,44.42
2018-02-17T05:27:48.794Z,25.30
2018-02-17T05:30:18.522Z,35.58
2018-02-17T05:32:52.682Z,24.25
2018-02-17T05:35:22.855Z,25.60
2018-02-17T05:37:51.194Z,35.58
2018-02-17T05:40:20.334Z,28.55
2018-02-17T05:42:53.164Z,29.85
2018-02-17T05:45:20.814Z,29.98
2018-02-17T05:47:53.952Z,23.17
2018-02-17T05:50:22.254Z,30.92
2018-02-17T05:52:50.361Z,26.23
2018-02-17T05:55:17.945Z,26.75
2018-02-17T05:57:45.525Z,25.27
2018-02-17T06:00:13.854Z,24.27
2018-02-17T06:02:41.414Z,30.08
2018-02-17T06:05:09.029Z,28.23
2018-02-17T06:07:36.576Z,26.52
2018-02-17T06:10:04.914Z,29.60
2018-02-17T06:12:32.493Z,34.33
2018-02-17T06:15:00.074Z,42.85
2018-02-17T06:17:27.629Z,38.78
2018-02-17T06:19:55.200Z,31.17
2018-02-17T06:22:23.244Z,27.45
2018-02-17T06:24:50.806Z,28.02
2018-02-17T06:27:18.341Z,26.50
2018-02-17T06:29:45.921Z,32.72
2018-02-17T06:32:13.447Z,31.35
2018-02-17T06:34:41.010Z,25.12
2018-02-17T06:37:08.806Z,29.63
2018-02-17T06:39:36.369Z,32.67
2018-02-17T06:42:03.965Z,23.25
2018-02-17T06:44:31.481Z,32.58
2018-02-17T06:46:59.006Z,25.25
2018-02-17T06:49:26.561Z,26.08
2018-02-17T06:51:54.818Z,29.17
2018-02-17T06:54:23.082Z,28.33
2018-02-17T06:56:50.576Z,26.00
2018-02-17T06:59:19.294Z,41.05
2018-02-17T07:01:46.901Z,22.77
2018-02-17T07:04:15.233Z,25.02
2018-02-17T07:06:43.029Z,29.52
2018-02-17T07:09:11.374Z,31.48
2018-02-17T07:11:39.007Z,27.87
2018-02-17T07:14:06.553Z,37.20
2018-02-17T07:16:34.110Z,34.17
2018-02-17T07:19:01.666Z,27.60
2018-02-17T07:21:29.198Z,37.65
2018-02-17T07:23:56.886Z,34.90
2018-02-17T07:26:24.460Z,36.45
2018-02-17T07:28:52.019Z,27.87
2018-02-17T07:31:19.563Z,29.15
2018-02-17T07:33:47.108Z,32.25
2018-02-17T07:36:15.417Z,28.95
2018-02-17T07:38:42.972Z,24.50
2018-02-17T07:41:10.509Z,29.48
2018-02-17T07:43:39.784Z,46.67
2018-02-17T07:46:07.314Z,33.97
2018-02-17T07:48:34.921Z,30.70
2018-02-17T07:51:03.266Z,34.42
2018-02-17T07:53:31.144Z,38.75
2018-02-17T07:55:58.755Z,32.80
2018-02-17T07:58:26.344Z,24.37
2018-02-17T08:00:54.000Z,29.37
2018-02-17T08:03:21.553Z,37.13
2018-02-17T08:05:49.120Z,27.20
2018-02-17T08:08:16.715Z,39.95
2018-02-17T08:10:45.011Z,33.25
2018-02-17T08:13:12.618Z,34.15
2018-02-17T08:15:40.134Z,34.30
2018-02-17T08:18:07.687Z,39.50
2018-02-17T08:20:35.337Z,30.85
2018-02-17T08:23:03.672Z,38.95
2018-02-17T08:25:31.368Z,33.30
2018-02-17T08:27:58.931Z,40.33
2018-02-17T08:30:26.450Z,39.92
2018-02-17T08:32:54.024Z,33.78
2018-02-17T08:35:22.424Z,37.42
2018-02-17T08:37:49.994Z,43.28
2018-02-17T08:40:17.549Z,43.75
2018-02-17T08:42:45.099Z,40.70
2018-02-17T08:45:12.688Z,39.33
2018-02-17T08:47:40.241Z,35.70
2018-02-17T08:50:07.805Z,36.22
2018-02-17T08:52:35.388Z,39.97
2018-02-17T08:55:03.719Z,39.30
2018-02-17T08:57:32.299Z,40.28
2018-02-17T09:00:13.469Z,40.10
2018-02-17T09:02:42.069Z,47.40
2018-02-17T09:05:10.883Z,39.63
2018-02-17T09:07:39.542Z,41.55
2018-02-17T09:10:07.311Z,42.30
2018-02-17T09:12:35.220Z,39.85
2018-02-17T09:15:06.919Z,37.53
2018-02-17T09:26:32.835Z,38.30
2018-02-17T09:31:59.395Z,43.83
2018-02-17T09:34:40.432Z,42.35
2018-02-17T09:37:25.668Z,43.25
2018-02-17T11:12:11.905Z,40.72
2018-02-17T11:14:39.698Z,38.03
2018-02-17T11:17:07.535Z,47.08
2018-02-17T11:19:35.124Z,64.90
2018-02-17T11:22:02.801Z,57.55
2018-02-17T11:24:30.499Z,70.78
2018-02-17T11:26:58.849Z,65.78
2018-02-17T11:29:26.401Z,62.20
2018-02-17T11:31:54.040Z,56.72
2018-02-17T11:34:21.718Z,56.85
2018-02-17T11:36:49.288Z,43.28
2018-02-17T11:39:16.841Z,46.47
2018-02-17T11:41:44.363Z,41.55
2018-02-17T11:44:11.929Z,37.47
2018-02-17T11:46:39.524Z,44.28
2018-02-17T11:49:07.104Z,33.13
2018-02-17T11:51:34.664Z,37.42
2018-02-17T11:54:02.284Z,32.63
2018-02-17T11:56:29.849Z,37.53
2018-02-17T11:58:57.430Z,28.08
2018-02-17T12:01:24.994Z,49.63
2018-02-17T12:03:52.596Z,44.05
2018-02-17T12:06:20.126Z,44.72
2018-02-17T12:08:47.697Z,37.25
2018-02-17T12:11:15.997Z,38.45
2018-02-17T12:13:43.576Z,31.12
2018-02-17T12:16:11.119Z,48.15
2018-02-17T12:18:38.813Z,43.22
2018-02-17T12:21:07.108Z,32.63
2018-02-17T12:23:35.456Z,34.22
2018-02-17T12:26:03.024Z,45.03
2018-02-17T12:28:31.428Z,32.30
2018-02-17T12:30:58.988Z,30.12
2018-02-17T12:33:26.613Z,63.53
2018-02-17T12:35:54.282Z,36.40
2018-02-17T12:38:21.847Z,29.25
2018-02-17T12:40:49.476Z,28.00
2018-02-17T12:43:17.140Z,44.25
2018-02-17T12:45:44.702Z,26.65
2018-02-17T12:48:13.112Z,25.37
2018-02-17T12:50:40.749Z,24.33
2018-02-17T12:53:08.288Z,20.77
2018-02-17T12:55:35.800Z,23.08
2018-02-17T12:58:03.351Z,29.00
2018-02-17T13:00:31.806Z,34.47
2018-02-17T13:02:59.604Z,20.20
2018-02-17T13:05:27.261Z,32.28
2018-02-17T13:07:55.630Z,24.30
2018-02-17T13:10:23.202Z,34.60
2018-02-17T13:12:51.517Z,24.70
2018-02-17T13:15:19.064Z,25.23
2018-02-17T13:17:46.590Z,19.75
2018-02-17T13:20:14.169Z,23.48
2018-02-17T13:22:44.159Z,29.52
2018-02-17T13:25:12.664Z,23.50
2018-02-17T13:27:40.190Z,22.83
2018-02-17T13:30:07.758Z,28.38
2018-02-17T13:32:35.368Z,21.37
2018-02-17T13:35:02.896Z,27.05
2018-02-17T13:37:30.479Z,20.50
2018-02-17T13:39:58.220Z,25.95
2018-02-17T13:42:25.773Z,25.02
2018-02-17T13:44:53.353Z,25.95
2018-02-17T13:47:21.221Z,29.33
2018-02-17T13:49:48.779Z,19.25
2018-02-17T13:52:16.350Z,24.98
2018-02-17T13:54:44.027Z,23.42
2018-02-17T13:57:11.578Z,23.20
2018-02-17T13:59:39.204Z,25.02
2018-02-17T14:02:07.007Z,16.42
2018-02-17T14:04:35.378Z,26.15
2018-02-17T14:07:02.955Z,15.57
2018-02-17T14:09:31.315Z,31.65
2018-02-17T14:12:00.477Z,24.80
2018-02-17T14:14:28.034Z,27.90
2018-02-17T14:16:55.567Z,22.25
2018-02-17T14:19:23.138Z,24.35
2018-02-17T14:21:50.670Z,24.73
2018-02-17T14:24:18.257Z,25.75
2018-02-17T14:26:45.858Z,25.95
2018-02-17T14:29:13.479Z,30.70
2018-02-17T14:31:41.049Z,23.40
2018-02-17T14:34:08.632Z,19.15
2018-02-17T14:36:36.227Z,24.73
2018-02-17T14:39:03.796Z,21.77
2018-02-17T14:41:31.379Z,24.63
2018-02-17T14:43:59.005Z,24.33
2018-02-17T14:46:26.552Z,38.05
2018-02-17T14:48:54.160Z,30.35
2018-02-17T14:51:21.808Z,24.95
2018-02-17T14:53:49.350Z,26.55
2018-02-17T14:56:16.909Z,21.87
2018-02-17T14:58:44.648Z,18.80
2018-02-17T15:01:12.282Z,20.50
2018-02-17T15:03:39.900Z,30.85
2018-02-17T15:06:08.899Z,26.15
2018-02-17T15:08:37.243Z,29.12
2018-02-17T15:11:05.032Z,23.27
2018-02-17T15:13:33.182Z,22.55
2018-02-17T15:16:00.768Z,24.90
2018-02-17T15:18:29.290Z,21.55
2018-02-17T15:20:56.926Z,25.15
2018-02-17T15:23:24.513Z,34.75
2018-02-17T15:25:52.092Z,25.80
2018-02-17T15:28:19.788Z,29.30
2018-02-17T15:30:48.144Z,23.70
2018-02-17T15:33:15.733Z,36.58
2018-02-17T15:35:43.281Z,28.35
2018-02-17T15:38:11.653Z,31.87
2018-02-17T15:40:39.194Z,29.87
2018-02-17T15:43:06.854Z,39.45
2018-02-17T15:45:35.024Z,24.75
2018-02-17T15:48:02.595Z,23.87
2018-02-17T15:50:30.695Z,27.35
2018-02-17T15:53:00.244Z,33.63
2018-02-17T15:55:28.580Z,27.98
2018-02-17T15:57:56.129Z,35.88
2018-02-17T16:00:23.666Z,37.03
2018-02-17T16:02:51.215Z,29.83
2018-02-17T16:05:18.775Z,42.03
2018-02-17T16:07:46.309Z,31.65
2018-02-17T16:10:14.110Z,29.67
2018-02-17T16:12:42.525Z,31.30
2018-02-17T16:15:10.045Z,26.70
2018-02-17T16:17:37.611Z,52.50
2018-02-17T16:20:05.190Z,42.80
2018-02-17T16:22:32.745Z,37.83
2018-02-17T16:25:01.053Z,31.98
2018-02-17T16:27:28.671Z,36.75
2018-02-17T16:29:56.240Z,36.13
2018-02-17T16:32:24.537Z,40.83
2018-02-17T16:34:52.150Z,35.42
2018-02-17T16:37:19.703Z,29.00
2018-02-17T16:39:47.367Z,32.28
2018-02-17T16:42:14.990Z,26.27
2018-02-17T16:44:43.543Z,26.62
2018-02-17T16:47:11.853Z,43.00
2018-02-17T16:49:39.381Z,28.38
2018-02-17T16:52:07.391Z,31.10
2018-02-17T16:54:34.923Z,31.27
2018-02-17T16:57:03.241Z,33.25
2018-02-17T16:59:30.820Z,31.85
2018-02-17T17:01:58.355Z,23.62
2018-02-17T17:04:25.931Z,40.70
2018-02-17T17:06:53.491Z,31.10
2018-02-17T17:11:56.442Z,42.62
2018-02-17T17:14:24.748Z,34.67
2018-02-17T17:16:52.311Z,38.03
2018-02-17T17:19:19.884Z,33.00
2018-02-17T17:21:47.470Z,36.83
2018-02-17T17:24:14.997Z,33.72
2018-02-17T17:26:42.591Z,33.40
2018-02-17T17:29:10.136Z,37.42
2018-02-17T17:31:37.760Z,35.53
2018-02-17T17:34:05.356Z,40.20
2018-02-17T17:36:32.895Z,35.60
2018-02-17T17:39:00.486Z,38.90
2018-02-17T17:41:28.764Z,39.78
2018-02-17T17:43:57.108Z,35.15
2018-02-17T17:46:24.722Z,50.92
2018-02-17T17:48:52.316Z,37.97
2018-02-17T17:51:19.899Z,42.65
2018-02-17T17:53:48.208Z,43.72
2018-02-17T17:56:15.765Z,41.42
2018-02-17T17:58:43.389Z,35.30
2018-02-17T18:01:11.241Z,35.90
2018-02-17T18:03:38.841Z,39.72
2018-02-17T18:06:06.400Z,44.92
2018-02-17T18:08:34.035Z,39.83
2018-02-17T18:11:01.566Z,39.08
2018-02-17T18:13:29.137Z,45.05
2018-02-17T18:15:56.652Z,45.22
2018-02-17T18:18:24.956Z,54.78
2018-02-17T18:20:52.526Z,50.83
2018-02-17T18:23:20.086Z,42.50
2018-02-17T18:25:47.638Z,52.75
2018-02-17T18:28:15.249Z,49.33
2018-02-17T18:30:42.816Z,63.58
2018-02-17T18:33:10.373Z,48.30
2018-02-17T18:35:37.917Z,43.13
2018-02-17T18:38:05.486Z,38.63
2018-02-17T18:40:33.046Z,57.47
2018-02-17T18:43:00.667Z,45.90
2018-02-17T18:45:28.350Z,46.55
2018-02-17T18:47:56.694Z,78.03
2018-02-17T18:50:24.261Z,61.83
2018-02-17T18:52:51.917Z,50.22
2018-02-17T18:55:19.483Z,41.35
2018-02-17T18:57:47.089Z,48.70
2018-02-17T19:00:14.643Z,59.97
2018-02-17T19:02:42.273Z,52.97
2018-02-17T19:05:09.815Z,56.55
2018-02-17T19:07:37.361Z,55.20
2018-02-17T19:10:05.141Z,62.47
2018-02-17T19:12:32.765Z,49.45
2018-02-17T19:15:00.366Z,45.28
2018-02-17T19:17:28.008Z,53.83
2018-02-17T19:19:55.568Z,47.95
2018-02-17T19:22:23.523Z,63.30
2018-02-17T19:24:51.835Z,67.60
2018-02-17T19:27:19.494Z,57.88
2018-02-17T19:29:47.104Z,64.07
2018-02-17T19:32:14.839Z,52.80
2018-02-17T19:34:42.407Z,74.18
2018-02-17T19:37:10.152Z,55.10
2018-02-17T19:39:37.722Z,67.60
2018-02-17T19:42:05.290Z,54.30
2018-02-17T19:44:32.914Z,55.45
2018-02-17T19:47:00.508Z,55.63
2018-02-17T19:49:28.057Z,58.03
2018-02-17T19:51:55.646Z,53.53
2018-02-17T19:54:23.202Z,57.90
2018-02-17T19:56:50.834Z,58.30
2018-02-17T19:59:18.418Z,51.22
2018-02-17T20:01:46.592Z,64.40
2018-02-17T20:04:14.165Z,64.15
2018-02-17T20:06:42.234Z,56.70
2018-02-17T20:09:09.802Z,64.95
2018-02-17T20:11:37.309Z,73.78
2018-02-17T20:14:04.916Z,55.40
2018-02-17T20:16:32.451Z,62.97
2018-02-17T20:19:00.040Z,55.88
2018-02-17T20:21:27.602Z,56.83
2018-02-17T20:23:55.267Z,63.50
2018-02-17T20:26:23.547Z,68.53
2018-02-17T20:28:52.725Z,70.37
2018-02-17T20:31:20.267Z,73.30
2018-02-17T20:33:47.821Z,66.20
2018-02-17T20:36:15.353Z,69.45
2018-02-17T20:38:43.764Z,56.28
2018-02-17T20:41:11.322Z,77.90
2018-02-17T20:43:38.962Z,73.85
2018-02-17T20:46:06.539Z,67.35
2018-02-17T20:48:34.191Z,70.43
2018-02-17T20:51:01.798Z,67.93
2018-02-17T20:53:29.440Z,74.75
2018-02-17T20:55:56.996Z,59.55
2018-02-17T20:58:25.543Z,59.17
2018-02-17T21:00:53.173Z,63.60
2018-02-17T21:03:21.537Z,51.80
2018-02-17T21:05:49.099Z,57.62
2018-02-17T21:08:17.494Z,60.10
2018-02-17T21:10:45.838Z,66.15
2018-02-17T21:13:13.425Z,62.15
2018-02-17T21:15:41.755Z,61.67
2018-02-17T21:18:09.297Z,68.62
2018-02-17T21:20:36.840Z,62.55
2018-02-17T21:23:04.470Z,64.85
2018-02-17T21:25:32.864Z,64.10
2018-02-17T21:28:01.260Z,72.53
2018-02-17T21:30:28.867Z,58.50
2018-02-17T21:32:56.582Z,77.05
2018-02-17T21:35:24.144Z,65.65
2018-02-17T21:37:52.467Z,73.68
2018-02-17T21:40:20.295Z,65.03
2018-02-17T21:42:47.889Z,73.00
2018-02-17T21:45:17.116Z,67.95
2018-02-17T21:47:44.673Z,55.05
2018-02-17T21:50:12.197Z,68.50
2018-02-17T21:52:39.836Z,56.35
2018-02-17T21:55:07.404Z,65.40
2018-02-17T21:57:34.986Z,69.78
2018-02-17T22:00:02.549Z,83.10
2018-02-17T22:02:30.122Z,56.80
2018-02-17T22:04:57.679Z,64.80
2018-02-17T22:07:26.097Z,59.72
2018-02-17T22:09:54.432Z,69.12
2018-02-17T22:12:21.982Z,74.75
2018-02-17T22:14:49.680Z,64.87
2018-02-17T22:17:17.891Z,75.50
2018-02-17T22:19:45.436Z,69.43
2018-02-17T22:22:13.092Z,68.72
2018-02-17T22:24:40.755Z,66.60
2018-02-17T22:27:08.373Z,77.10
2018-02-17T22:29:37.286Z,56.05
2018-02-17T22:32:04.874Z,67.10
2018-02-17T22:34:32.408Z,67.50
2018-02-17T22:36:59.928Z,77.55
2018-02-17T22:39:27.452Z,67.78
2018-02-17T22:41:55.132Z,65.57
2018-02-17T22:44:22.942Z,66.80
2018-02-17T22:46:51.529Z,64.68
2018-02-17T22:49:19.126Z,58.83
2018-02-17T22:51:46.670Z,68.00
2018-02-17T22:54:14.299Z,60.67
2018-02-17T22:56:42.749Z,65.30
2018-02-17T22:59:10.328Z,60.60
2018-02-17T23:01:38.553Z,70.97
2018-02-17T23:04:06.534Z,72.65
2018-02-17T23:06:34.482Z,65.25
2018-02-17T23:09:03.410Z,68.03
2018-02-17T23:11:31.204Z,67.37
2018-02-17T23:13:59.157Z,63.00
2018-02-17T23:16:27.106Z,70.35
2018-02-17T23:18:56.096Z,66.55
2018-02-17T23:21:24.079Z,73.90
2018-02-17T23:23:52.167Z,67.00
2018-02-17T23:26:19.885Z,62.25
2018-02-17T23:28:47.829Z,74.10
2018-02-17T23:31:15.685Z,75.35
2018-02-17T23:33:43.744Z,70.93
2018-02-17T23:36:11.568Z,69.07
2018-02-17T23:38:39.259Z,67.75
2018-02-17T23:41:07.576Z,55.47
2018-02-17T23:43:35.421Z,57.20
2018-02-17T23:46:02.978Z,65.85
2018-02-17T23:48:31.368Z,55.58
2018-02-17T23:50:59.031Z,72.05
2018-02-17T23:53:26.652Z,62.05
2018-02-17T23:55:54.955Z,62.15
2018-02-17T23:58:23.406Z,66.65
